sensor_id;sensor_type;location;lat;lon;timestamp;P1;durP1;ratioP1;P2;durP2;ratioP2
40433;SDS011;26146;51.114;5.654;2023-05-18T00:03:43;14.13;;;2.77;;
40433;SDS011;26146;51.114;5.654;2023-05-18T00:07:44;11.30;;;2.63;;
40433;SDS011;26146;51.114;5.654;2023-05-18T00:11:46;12.87;;;2.97;;
40433;SDS011;26146;51.114;5.654;2023-05-18T00:15:47;12.47;;;3.40;;
40433;SDS011;26146;51.114;5.654;2023-05-18T00:19:48;12.40;;;2.80;;
40433;SDS011;26146;51.114;5.654;2023-05-18T00:23:49;11.27;;;2.93;;
40433;SDS011;26146;51.114;5.654;2023-05-18T00:27:50;10.20;;;3.13;;
40433;SDS011;26146;51.114;5.654;2023-05-18T00:31:51;11.63;;;3.20;;
40433;SDS011;26146;51.114;5.654;2023-05-18T00:35:53;12.90;;;3.10;;
40433;SDS011;26146;51.114;5.654;2023-05-18T00:39:56;13.00;;;3.10;;
40433;SDS011;26146;51.114;5.654;2023-05-18T00:43:58;11.50;;;2.80;;
40433;SDS011;26146;51.114;5.654;2023-05-18T00:48:00;11.63;;;3.20;;
40433;SDS011;26146;51.114;5.654;2023-05-18T00:52:01;13.03;;;3.20;;
40433;SDS011;26146;51.114;5.654;2023-05-18T00:56:04;11.03;;;3.27;;
40433;SDS011;26146;51.114;5.654;2023-05-18T01:00:07;11.10;;;2.93;;
40433;SDS011;26146;51.114;5.654;2023-05-18T01:04:10;13.60;;;2.97;;
40433;SDS011;26146;51.114;5.654;2023-05-18T01:08:13;11.13;;;2.97;;
40433;SDS011;26146;51.114;5.654;2023-05-18T01:12:24;10.53;;;3.07;;
40433;SDS011;26146;51.114;5.654;2023-05-18T01:16:38;14.33;;;3.30;;
40433;SDS011;26146;51.114;5.654;2023-05-18T01:24:49;11.17;;;2.93;;
40433;SDS011;26146;51.114;5.654;2023-05-18T01:28:58;14.57;;;2.70;;
40433;SDS011;26146;51.114;5.654;2023-05-18T01:33:05;13.37;;;3.20;;
40433;SDS011;26146;51.114;5.654;2023-05-18T01:37:13;15.83;;;3.40;;
40433;SDS011;26146;51.114;5.654;2023-05-18T01:41:19;13.60;;;3.17;;
40433;SDS011;26146;51.114;5.654;2023-05-18T01:45:23;14.53;;;3.17;;
40433;SDS011;26146;51.114;5.654;2023-05-18T01:53:38;13.90;;;3.00;;
40433;SDS011;26146;51.114;5.654;2023-05-18T01:57:44;10.83;;;2.87;;
40433;SDS011;26146;51.114;5.654;2023-05-18T02:01:47;12.60;;;3.10;;
40433;SDS011;26146;51.114;5.654;2023-05-18T02:05:49;13.17;;;3.10;;
40433;SDS011;26146;51.114;5.654;2023-05-18T02:09:50;12.20;;;3.87;;
40433;SDS011;26146;51.114;5.654;2023-05-18T02:13:51;11.40;;;3.00;;
40433;SDS011;26146;51.114;5.654;2023-05-18T02:17:52;12.80;;;3.33;;
40433;SDS011;26146;51.114;5.654;2023-05-18T02:21:57;11.80;;;3.20;;
40433;SDS011;26146;51.114;5.654;2023-05-18T02:25:58;16.53;;;3.30;;
40433;SDS011;26146;51.114;5.654;2023-05-18T02:30:00;13.83;;;3.20;;
40433;SDS011;26146;51.114;5.654;2023-05-18T02:34:03;13.30;;;3.50;;
40433;SDS011;26146;51.114;5.654;2023-05-18T02:38:04;14.10;;;3.67;;
40433;SDS011;26146;51.114;5.654;2023-05-18T02:42:06;14.13;;;3.37;;
40433;SDS011;26146;51.114;5.654;2023-05-18T02:46:07;9.40;;;3.00;;
40433;SDS011;26146;51.114;5.654;2023-05-18T02:50:08;14.60;;;3.37;;
40433;SDS011;26146;51.114;5.654;2023-05-18T02:54:10;11.50;;;3.30;;
40433;SDS011;26146;51.114;5.654;2023-05-18T02:58:11;11.23;;;3.27;;
40433;SDS011;26146;51.114;5.654;2023-05-18T03:02:13;11.67;;;3.47;;
40433;SDS011;26146;51.114;5.654;2023-05-18T03:06:15;13.63;;;3.83;;
40433;SDS011;26146;51.114;5.654;2023-05-18T03:10:17;10.30;;;3.33;;
40433;SDS011;26146;51.114;5.654;2023-05-18T03:14:18;10.73;;;3.30;;
40433;SDS011;26146;51.114;5.654;2023-05-18T03:18:19;13.03;;;3.40;;
40433;SDS011;26146;51.114;5.654;2023-05-18T03:22:21;12.13;;;3.20;;
40433;SDS011;26146;51.114;5.654;2023-05-18T03:26:22;15.93;;;3.30;;
40433;SDS011;26146;51.114;5.654;2023-05-18T03:30:25;13.07;;;3.53;;
40433;SDS011;26146;51.114;5.654;2023-05-18T03:34:26;12.00;;;3.40;;
40433;SDS011;26146;51.114;5.654;2023-05-18T03:38:27;12.03;;;3.37;;
40433;SDS011;26146;51.114;5.654;2023-05-18T03:42:28;11.53;;;3.40;;
40433;SDS011;26146;51.114;5.654;2023-05-18T03:46:29;13.27;;;3.60;;
40433;SDS011;26146;51.114;5.654;2023-05-18T03:50:30;11.63;;;3.40;;
40433;SDS011;26146;51.114;5.654;2023-05-18T03:54:32;10.83;;;3.33;;
40433;SDS011;26146;51.114;5.654;2023-05-18T03:58:33;13.07;;;3.40;;
40433;SDS011;26146;51.114;5.654;2023-05-18T04:02:34;11.63;;;3.30;;
40433;SDS011;26146;51.114;5.654;2023-05-18T04:06:35;11.67;;;3.20;;
40433;SDS011;26146;51.114;5.654;2023-05-18T04:10:36;11.37;;;3.70;;
40433;SDS011;26146;51.114;5.654;2023-05-18T04:14:37;12.20;;;3.90;;
40433;SDS011;26146;51.114;5.654;2023-05-18T04:18:41;13.30;;;3.23;;
40433;SDS011;26146;51.114;5.654;2023-05-18T04:22:44;12.20;;;3.60;;
40433;SDS011;26146;51.114;5.654;2023-05-18T04:26:47;11.80;;;3.20;;
40433;SDS011;26146;51.114;5.654;2023-05-18T04:30:48;9.37;;;3.17;;
40433;SDS011;26146;51.114;5.654;2023-05-18T04:34:51;12.53;;;3.13;;
40433;SDS011;26146;51.114;5.654;2023-05-18T04:38:52;13.17;;;3.37;;
40433;SDS011;26146;51.114;5.654;2023-05-18T04:42:53;12.07;;;3.43;;
40433;SDS011;26146;51.114;5.654;2023-05-18T04:46:54;13.23;;;3.37;;
40433;SDS011;26146;51.114;5.654;2023-05-18T04:50:55;13.20;;;3.20;;
40433;SDS011;26146;51.114;5.654;2023-05-18T04:54:56;11.77;;;3.70;;
40433;SDS011;26146;51.114;5.654;2023-05-18T04:58:57;13.13;;;3.40;;
40433;SDS011;26146;51.114;5.654;2023-05-18T05:02:58;13.63;;;3.43;;
40433;SDS011;26146;51.114;5.654;2023-05-18T05:07:00;14.67;;;3.80;;
40433;SDS011;26146;51.114;5.654;2023-05-18T05:11:01;14.77;;;3.63;;
40433;SDS011;26146;51.114;5.654;2023-05-18T05:15:02;10.43;;;3.50;;
40433;SDS011;26146;51.114;5.654;2023-05-18T05:19:03;9.90;;;3.30;;
40433;SDS011;26146;51.114;5.654;2023-05-18T05:23:05;12.43;;;3.67;;
40433;SDS011;26146;51.114;5.654;2023-05-18T05:27:06;11.20;;;3.37;;
40433;SDS011;26146;51.114;5.654;2023-05-18T05:31:07;12.27;;;3.60;;
40433;SDS011;26146;51.114;5.654;2023-05-18T05:35:08;14.60;;;3.83;;
40433;SDS011;26146;51.114;5.654;2023-05-18T05:39:10;12.07;;;3.90;;
40433;SDS011;26146;51.114;5.654;2023-05-18T05:43:11;14.00;;;3.90;;
40433;SDS011;26146;51.114;5.654;2023-05-18T05:47:12;12.33;;;4.10;;
40433;SDS011;26146;51.114;5.654;2023-05-18T05:51:13;11.57;;;4.20;;
40433;SDS011;26146;51.114;5.654;2023-05-18T05:55:14;12.07;;;3.70;;
40433;SDS011;26146;51.114;5.654;2023-05-18T05:59:15;13.43;;;4.50;;
40433;SDS011;26146;51.114;5.654;2023-05-18T06:03:17;11.17;;;4.00;;
40433;SDS011;26146;51.114;5.654;2023-05-18T06:07:18;13.97;;;4.30;;
40433;SDS011;26146;51.114;5.654;2023-05-18T06:11:19;11.73;;;4.30;;
40433;SDS011;26146;51.114;5.654;2023-05-18T06:15:20;11.80;;;3.90;;
40433;SDS011;26146;51.114;5.654;2023-05-18T06:19:21;12.73;;;4.13;;
40433;SDS011;26146;51.114;5.654;2023-05-18T06:23:22;11.20;;;3.80;;
40433;SDS011;26146;51.114;5.654;2023-05-18T06:27:23;11.20;;;4.13;;
40433;SDS011;26146;51.114;5.654;2023-05-18T06:31:25;12.33;;;3.60;;
40433;SDS011;26146;51.114;5.654;2023-05-18T06:35:26;11.70;;;4.03;;
40433;SDS011;26146;51.114;5.654;2023-05-18T06:39:27;11.50;;;4.40;;
40433;SDS011;26146;51.114;5.654;2023-05-18T06:43:28;13.63;;;4.33;;
40433;SDS011;26146;51.114;5.654;2023-05-18T06:47:30;15.23;;;4.57;;
40433;SDS011;26146;51.114;5.654;2023-05-18T06:51:31;13.60;;;4.47;;
40433;SDS011;26146;51.114;5.654;2023-05-18T06:55:32;13.60;;;4.50;;
40433;SDS011;26146;51.114;5.654;2023-05-18T06:59:33;11.93;;;4.17;;
40433;SDS011;26146;51.114;5.654;2023-05-18T07:03:34;13.67;;;4.27;;
40433;SDS011;26146;51.114;5.654;2023-05-18T07:07:36;17.43;;;4.20;;
40433;SDS011;26146;51.114;5.654;2023-05-18T07:11:37;14.93;;;4.57;;
40433;SDS011;26146;51.114;5.654;2023-05-18T07:15:39;11.90;;;4.17;;
40433;SDS011;26146;51.114;5.654;2023-05-18T07:19:40;15.13;;;4.10;;
40433;SDS011;26146;51.114;5.654;2023-05-18T07:23:41;18.20;;;4.40;;
40433;SDS011;26146;51.114;5.654;2023-05-18T07:27:43;14.60;;;4.53;;
40433;SDS011;26146;51.114;5.654;2023-05-18T07:31:44;12.50;;;4.20;;
40433;SDS011;26146;51.114;5.654;2023-05-18T07:35:45;11.23;;;4.20;;
40433;SDS011;26146;51.114;5.654;2023-05-18T07:39:46;14.67;;;4.43;;
40433;SDS011;26146;51.114;5.654;2023-05-18T07:43:48;16.17;;;4.70;;
40433;SDS011;26146;51.114;5.654;2023-05-18T07:47:51;12.70;;;4.80;;
40433;SDS011;26146;51.114;5.654;2023-05-18T07:51:53;13.63;;;4.20;;
40433;SDS011;26146;51.114;5.654;2023-05-18T07:55:54;17.67;;;4.27;;
40433;SDS011;26146;51.114;5.654;2023-05-18T07:59:55;11.37;;;4.17;;
40433;SDS011;26146;51.114;5.654;2023-05-18T08:03:56;12.57;;;4.27;;
40433;SDS011;26146;51.114;5.654;2023-05-18T08:07:58;16.33;;;4.27;;
40433;SDS011;26146;51.114;5.654;2023-05-18T08:11:59;16.67;;;4.60;;
40433;SDS011;26146;51.114;5.654;2023-05-18T08:16:00;11.23;;;4.10;;
40433;SDS011;26146;51.114;5.654;2023-05-18T08:20:01;12.20;;;4.27;;
40433;SDS011;26146;51.114;5.654;2023-05-18T08:24:05;12.67;;;4.37;;
40433;SDS011;26146;51.114;5.654;2023-05-18T08:28:07;12.23;;;4.10;;
40433;SDS011;26146;51.114;5.654;2023-05-18T08:32:08;12.33;;;4.80;;
40433;SDS011;26146;51.114;5.654;2023-05-18T08:36:09;14.20;;;4.00;;
40433;SDS011;26146;51.114;5.654;2023-05-18T08:40:11;14.23;;;4.20;;
40433;SDS011;26146;51.114;5.654;2023-05-18T08:44:20;12.20;;;3.80;;
40433;SDS011;26146;51.114;5.654;2023-05-18T08:48:24;15.88;;;4.10;;
40433;SDS011;26146;51.114;5.654;2023-05-18T08:52:34;11.10;;;3.22;;
40433;SDS011;26146;51.114;5.654;2023-05-18T09:00:38;11.98;;;3.05;;
40433;SDS011;26146;51.114;5.654;2023-05-18T09:04:39;12.65;;;2.95;;
40433;SDS011;26146;51.114;5.654;2023-05-18T09:08:41;12.57;;;3.10;;
40433;SDS011;26146;51.114;5.654;2023-05-18T09:12:44;10.73;;;2.75;;
40433;SDS011;26146;51.114;5.654;2023-05-18T09:16:46;12.23;;;2.80;;
40433;SDS011;26146;51.114;5.654;2023-05-18T09:20:47;15.32;;;3.20;;
40433;SDS011;26146;51.114;5.654;2023-05-18T09:24:48;13.07;;;2.78;;
40433;SDS011;26146;51.114;5.654;2023-05-18T09:28:50;13.57;;;3.05;;
40433;SDS011;26146;51.114;5.654;2023-05-18T09:32:52;10.07;;;3.17;;
40433;SDS011;26146;51.114;5.654;2023-05-18T09:36:53;11.30;;;3.20;;
40433;SDS011;26146;51.114;5.654;2023-05-18T09:40:56;15.15;;;3.20;;
40433;SDS011;26146;51.114;5.654;2023-05-18T09:45:00;11.95;;;3.67;;
40433;SDS011;26146;51.114;5.654;2023-05-18T09:49:02;10.50;;;3.13;;
40433;SDS011;26146;51.114;5.654;2023-05-18T09:53:08;9.80;;;3.17;;
40433;SDS011;26146;51.114;5.654;2023-05-18T09:57:09;13.57;;;3.58;;
40433;SDS011;26146;51.114;5.654;2023-05-18T10:01:11;14.05;;;3.90;;
40433;SDS011;26146;51.114;5.654;2023-05-18T10:05:21;12.02;;;3.67;;
40433;SDS011;26146;51.114;5.654;2023-05-18T10:09:25;10.93;;;3.72;;
40433;SDS011;26146;51.114;5.654;2023-05-18T10:13:27;11.88;;;3.53;;
40433;SDS011;26146;51.114;5.654;2023-05-18T10:17:31;12.20;;;3.60;;
40433;SDS011;26146;51.114;5.654;2023-05-18T10:21:33;12.40;;;3.35;;
40433;SDS011;26146;51.114;5.654;2023-05-18T10:25:36;11.57;;;3.58;;
40433;SDS011;26146;51.114;5.654;2023-05-18T10:29:38;9.35;;;2.83;;
40433;SDS011;26146;51.114;5.654;2023-05-18T10:33:40;11.18;;;3.40;;
40433;SDS011;26146;51.114;5.654;2023-05-18T10:37:44;9.55;;;3.05;;
40433;SDS011;26146;51.114;5.654;2023-05-18T10:41:47;11.55;;;3.10;;
40433;SDS011;26146;51.114;5.654;2023-05-18T10:45:51;11.15;;;2.92;;
40433;SDS011;26146;51.114;5.654;2023-05-18T10:49:54;9.80;;;2.78;;
40433;SDS011;26146;51.114;5.654;2023-05-18T10:54:02;13.38;;;3.55;;
40433;SDS011;26146;51.114;5.654;2023-05-18T10:58:11;10.93;;;3.05;;
40433;SDS011;26146;51.114;5.654;2023-05-18T11:02:15;10.70;;;3.07;;
40433;SDS011;26146;51.114;5.654;2023-05-18T11:06:22;9.98;;;3.20;;
40433;SDS011;26146;51.114;5.654;2023-05-18T11:10:23;10.30;;;3.10;;
40433;SDS011;26146;51.114;5.654;2023-05-18T11:14:46;10.73;;;3.00;;
40433;SDS011;26146;51.114;5.654;2023-05-18T11:18:51;11.55;;;3.10;;
40433;SDS011;26146;51.114;5.654;2023-05-18T11:26:57;10.68;;;2.70;;
40433;SDS011;26146;51.114;5.654;2023-05-18T11:31:08;10.80;;;3.00;;
40433;SDS011;26146;51.114;5.654;2023-05-18T11:35:24;10.93;;;2.78;;
40433;SDS011;26146;51.114;5.654;2023-05-18T11:39:25;11.63;;;2.88;;
40433;SDS011;26146;51.114;5.654;2023-05-18T11:43:26;11.93;;;3.20;;
40433;SDS011;26146;51.114;5.654;2023-05-18T11:47:29;11.80;;;3.10;;
40433;SDS011;26146;51.114;5.654;2023-05-18T11:51:31;10.95;;;3.30;;
40433;SDS011;26146;51.114;5.654;2023-05-18T11:55:36;11.10;;;2.95;;
40433;SDS011;26146;51.114;5.654;2023-05-18T11:59:39;11.15;;;3.17;;
40433;SDS011;26146;51.114;5.654;2023-05-18T12:03:42;9.73;;;2.87;;
40433;SDS011;26146;51.114;5.654;2023-05-18T12:07:43;10.40;;;3.20;;
40433;SDS011;26146;51.114;5.654;2023-05-18T12:11:53;11.48;;;3.28;;
40433;SDS011;26146;51.114;5.654;2023-05-18T12:15:54;9.90;;;3.30;;
40433;SDS011;26146;51.114;5.654;2023-05-18T12:19:56;11.80;;;3.03;;
40433;SDS011;26146;51.114;5.654;2023-05-18T12:23:58;10.32;;;2.63;;
40433;SDS011;26146;51.114;5.654;2023-05-18T12:28:00;8.63;;;2.63;;
40433;SDS011;26146;51.114;5.654;2023-05-18T12:32:04;9.57;;;3.03;;
40433;SDS011;26146;51.114;5.654;2023-05-18T12:36:09;10.35;;;3.30;;
40433;SDS011;26146;51.114;5.654;2023-05-18T12:40:14;10.73;;;3.20;;
40433;SDS011;26146;51.114;5.654;2023-05-18T12:44:16;9.45;;;2.65;;
40433;SDS011;26146;51.114;5.654;2023-05-18T12:48:18;13.05;;;3.05;;
40433;SDS011;26146;51.114;5.654;2023-05-18T12:52:20;10.13;;;2.50;;
40433;SDS011;26146;51.114;5.654;2023-05-18T12:56:21;11.85;;;2.95;;
40433;SDS011;26146;51.114;5.654;2023-05-18T13:00:24;10.45;;;2.80;;
40433;SDS011;26146;51.114;5.654;2023-05-18T13:04:32;10.18;;;2.65;;
40433;SDS011;26146;51.114;5.654;2023-05-18T13:08:36;8.82;;;2.83;;
40433;SDS011;26146;51.114;5.654;2023-05-18T13:12:44;8.35;;;2.35;;
40433;SDS011;26146;51.114;5.654;2023-05-18T13:16:50;10.27;;;2.72;;
40433;SDS011;26146;51.114;5.654;2023-05-18T13:20:55;8.60;;;2.70;;
40433;SDS011;26146;51.114;5.654;2023-05-18T13:24:57;8.30;;;2.50;;
40433;SDS011;26146;51.114;5.654;2023-05-18T13:28:58;8.55;;;2.60;;
40433;SDS011;26146;51.114;5.654;2023-05-18T13:33:00;7.78;;;2.60;;
40433;SDS011;26146;51.114;5.654;2023-05-18T13:37:01;9.90;;;2.90;;
40433;SDS011;26146;51.114;5.654;2023-05-18T13:41:02;12.05;;;2.90;;
40433;SDS011;26146;51.114;5.654;2023-05-18T13:45:04;13.07;;;2.55;;
40433;SDS011;26146;51.114;5.654;2023-05-18T13:49:06;9.80;;;2.72;;
40433;SDS011;26146;51.114;5.654;2023-05-18T13:53:07;12.65;;;2.65;;
40433;SDS011;26146;51.114;5.654;2023-05-18T13:57:08;11.95;;;2.90;;
40433;SDS011;26146;51.114;5.654;2023-05-18T14:01:09;9.40;;;2.55;;
40433;SDS011;26146;51.114;5.654;2023-05-18T14:05:11;10.52;;;2.70;;
40433;SDS011;26146;51.114;5.654;2023-05-18T14:09:13;8.82;;;2.60;;
40433;SDS011;26146;51.114;5.654;2023-05-18T14:13:14;11.25;;;2.83;;
40433;SDS011;26146;51.114;5.654;2023-05-18T14:17:16;9.68;;;2.70;;
40433;SDS011;26146;51.114;5.654;2023-05-18T14:21:17;10.95;;;2.90;;
40433;SDS011;26146;51.114;5.654;2023-05-18T14:25:18;11.60;;;2.75;;
40433;SDS011;26146;51.114;5.654;2023-05-18T14:29:19;8.98;;;2.50;;
40433;SDS011;26146;51.114;5.654;2023-05-18T14:33:20;10.93;;;2.70;;
40433;SDS011;26146;51.114;5.654;2023-05-18T14:37:21;10.80;;;2.80;;
40433;SDS011;26146;51.114;5.654;2023-05-18T14:41:22;11.18;;;2.85;;
40433;SDS011;26146;51.114;5.654;2023-05-18T14:45:24;10.50;;;2.80;;
40433;SDS011;26146;51.114;5.654;2023-05-18T14:49:26;11.48;;;2.72;;
40433;SDS011;26146;51.114;5.654;2023-05-18T14:53:27;13.15;;;2.70;;
40433;SDS011;26146;51.114;5.654;2023-05-18T14:57:28;8.10;;;2.47;;
40433;SDS011;26146;51.114;5.654;2023-05-18T15:01:29;8.82;;;2.70;;
40433;SDS011;26146;51.114;5.654;2023-05-18T15:05:30;10.00;;;3.05;;
40433;SDS011;26146;51.114;5.654;2023-05-18T15:09:32;10.63;;;2.70;;
40433;SDS011;26146;51.114;5.654;2023-05-18T15:13:33;10.07;;;2.70;;
40433;SDS011;26146;51.114;5.654;2023-05-18T15:17:34;10.07;;;2.50;;
40433;SDS011;26146;51.114;5.654;2023-05-18T15:21:35;9.00;;;2.88;;
40433;SDS011;26146;51.114;5.654;2023-05-18T15:25:36;10.57;;;2.80;;
40433;SDS011;26146;51.114;5.654;2023-05-18T15:29:38;12.45;;;2.95;;
40433;SDS011;26146;51.114;5.654;2023-05-18T15:33:39;11.52;;;2.60;;
40433;SDS011;26146;51.114;5.654;2023-05-18T15:37:42;12.32;;;2.58;;
40433;SDS011;26146;51.114;5.654;2023-05-18T15:41:43;14.57;;;2.72;;
40433;SDS011;26146;51.114;5.654;2023-05-18T15:45:44;9.35;;;2.55;;
40433;SDS011;26146;51.114;5.654;2023-05-18T15:49:46;10.02;;;2.60;;
40433;SDS011;26146;51.114;5.654;2023-05-18T15:53:47;9.40;;;2.30;;
40433;SDS011;26146;51.114;5.654;2023-05-18T15:57:48;10.13;;;2.50;;
40433;SDS011;26146;51.114;5.654;2023-05-18T16:01:49;15.35;;;2.60;;
40433;SDS011;26146;51.114;5.654;2023-05-18T16:05:50;12.00;;;2.55;;
40433;SDS011;26146;51.114;5.654;2023-05-18T16:09:51;11.27;;;2.75;;
40433;SDS011;26146;51.114;5.654;2023-05-18T16:13:52;10.50;;;2.65;;
40433;SDS011;26146;51.114;5.654;2023-05-18T16:17:54;12.27;;;2.58;;
40433;SDS011;26146;51.114;5.654;2023-05-18T16:21:58;11.02;;;2.30;;
40433;SDS011;26146;51.114;5.654;2023-05-18T16:25:59;9.38;;;2.40;;
40433;SDS011;26146;51.114;5.654;2023-05-18T16:30:04;10.52;;;2.47;;
40433;SDS011;26146;51.114;5.654;2023-05-18T16:34:06;9.32;;;2.35;;
40433;SDS011;26146;51.114;5.654;2023-05-18T16:38:07;9.65;;;2.20;;
40433;SDS011;26146;51.114;5.654;2023-05-18T16:42:08;10.55;;;2.60;;
40433;SDS011;26146;51.114;5.654;2023-05-18T16:46:11;10.77;;;2.38;;
40433;SDS011;26146;51.114;5.654;2023-05-18T16:50:12;8.95;;;2.28;;
40433;SDS011;26146;51.114;5.654;2023-05-18T16:54:14;9.48;;;2.08;;
40433;SDS011;26146;51.114;5.654;2023-05-18T16:58:15;10.18;;;2.60;;
40433;SDS011;26146;51.114;5.654;2023-05-18T17:02:16;11.27;;;2.92;;
40433;SDS011;26146;51.114;5.654;2023-05-18T17:06:17;11.52;;;2.45;;
40433;SDS011;26146;51.114;5.654;2023-05-18T17:10:20;9.85;;;2.08;;
40433;SDS011;26146;51.114;5.654;2023-05-18T17:14:21;10.13;;;2.38;;
40433;SDS011;26146;51.114;5.654;2023-05-18T17:18:22;9.52;;;2.22;;
40433;SDS011;26146;51.114;5.654;2023-05-18T17:22:23;8.95;;;2.33;;
40433;SDS011;26146;51.114;5.654;2023-05-18T17:26:24;9.20;;;2.20;;
40433;SDS011;26146;51.114;5.654;2023-05-18T17:30:29;9.77;;;1.98;;
40433;SDS011;26146;51.114;5.654;2023-05-18T17:34:30;8.45;;;2.10;;
40433;SDS011;26146;51.114;5.654;2023-05-18T17:38:31;8.80;;;2.30;;
40433;SDS011;26146;51.114;5.654;2023-05-18T17:42:32;9.35;;;2.28;;
40433;SDS011;26146;51.114;5.654;2023-05-18T17:46:34;9.07;;;1.90;;
40433;SDS011;26146;51.114;5.654;2023-05-18T17:50:35;10.77;;;1.98;;
40433;SDS011;26146;51.114;5.654;2023-05-18T17:54:37;8.82;;;2.40;;
40433;SDS011;26146;51.114;5.654;2023-05-18T17:58:38;11.90;;;2.67;;
40433;SDS011;26146;51.114;5.654;2023-05-18T18:02:39;10.65;;;2.95;;
40433;SDS011;26146;51.114;5.654;2023-05-18T18:06:40;9.40;;;2.70;;
40433;SDS011;26146;51.114;5.654;2023-05-18T18:10:42;10.02;;;2.88;;
40433;SDS011;26146;51.114;5.654;2023-05-18T18:14:43;12.07;;;3.30;;
40433;SDS011;26146;51.114;5.654;2023-05-18T18:18:44;9.73;;;3.22;;
40433;SDS011;26146;51.114;5.654;2023-05-18T18:22:45;9.75;;;3.03;;
40433;SDS011;26146;51.114;5.654;2023-05-18T18:26:47;10.52;;;3.00;;
40433;SDS011;26146;51.114;5.654;2023-05-18T18:30:48;9.25;;;2.80;;
40433;SDS011;26146;51.114;5.654;2023-05-18T18:34:49;10.05;;;3.10;;
40433;SDS011;26146;51.114;5.654;2023-05-18T18:38:50;9.65;;;3.00;;
40433;SDS011;26146;51.114;5.654;2023-05-18T18:42:52;11.68;;;3.00;;
40433;SDS011;26146;51.114;5.654;2023-05-18T18:46:53;13.35;;;3.78;;
40433;SDS011;26146;51.114;5.654;2023-05-18T18:50:54;11.50;;;3.83;;
40433;SDS011;26146;51.114;5.654;2023-05-18T18:54:56;9.73;;;3.65;;
40433;SDS011;26146;51.114;5.654;2023-05-18T18:58:57;11.80;;;3.70;;
40433;SDS011;26146;51.114;5.654;2023-05-18T19:02:58;17.42;;;3.92;;
40433;SDS011;26146;51.114;5.654;2023-05-18T19:07:00;10.73;;;4.00;;
40433;SDS011;26146;51.114;5.654;2023-05-18T19:11:02;9.98;;;3.60;;
40433;SDS011;26146;51.114;5.654;2023-05-18T19:15:03;11.57;;;3.65;;
40433;SDS011;26146;51.114;5.654;2023-05-18T19:19:05;12.45;;;3.97;;
40433;SDS011;26146;51.114;5.654;2023-05-18T19:23:07;9.55;;;3.78;;
40433;SDS011;26146;51.114;5.654;2023-05-18T19:27:08;11.25;;;3.83;;
40433;SDS011;26146;51.114;5.654;2023-05-18T19:31:10;10.93;;;3.83;;
40433;SDS011;26146;51.114;5.654;2023-05-18T19:35:11;11.25;;;4.10;;
40433;SDS011;26146;51.114;5.654;2023-05-18T19:39:15;14.10;;;4.30;;
40433;SDS011;26146;51.114;5.654;2023-05-18T19:43:16;10.98;;;4.60;;
40433;SDS011;26146;51.114;5.654;2023-05-18T19:47:17;14.25;;;4.90;;
40433;SDS011;26146;51.114;5.654;2023-05-18T19:51:19;12.27;;;4.85;;
40433;SDS011;26146;51.114;5.654;2023-05-18T19:55:20;14.45;;;4.88;;
40433;SDS011;26146;51.114;5.654;2023-05-18T19:59:21;13.30;;;4.47;;
40433;SDS011;26146;51.114;5.654;2023-05-18T20:03:22;12.55;;;4.82;;
40433;SDS011;26146;51.114;5.654;2023-05-18T20:07:23;15.88;;;5.25;;
40433;SDS011;26146;51.114;5.654;2023-05-18T20:11:24;13.00;;;4.60;;
40433;SDS011;26146;51.114;5.654;2023-05-18T20:15:25;15.23;;;4.80;;
40433;SDS011;26146;51.114;5.654;2023-05-18T20:19:27;14.18;;;4.53;;
40433;SDS011;26146;51.114;5.654;2023-05-18T20:23:28;13.88;;;4.65;;
40433;SDS011;26146;51.114;5.654;2023-05-18T20:27:29;15.02;;;4.53;;
40433;SDS011;26146;51.114;5.654;2023-05-18T20:31:31;13.05;;;4.70;;
40433;SDS011;26146;51.114;5.654;2023-05-18T20:35:32;11.88;;;4.30;;
40433;SDS011;26146;51.114;5.654;2023-05-18T20:39:33;16.05;;;4.35;;
40433;SDS011;26146;51.114;5.654;2023-05-18T20:43:36;12.05;;;4.82;;
40433;SDS011;26146;51.114;5.654;2023-05-18T20:47:38;12.57;;;4.90;;
40433;SDS011;26146;51.114;5.654;2023-05-18T20:51:40;12.67;;;5.00;;
40433;SDS011;26146;51.114;5.654;2023-05-18T20:55:41;11.40;;;4.53;;
40433;SDS011;26146;51.114;5.654;2023-05-18T20:59:45;13.47;;;4.80;;
40433;SDS011;26146;51.114;5.654;2023-05-18T21:03:46;13.07;;;4.77;;
40433;SDS011;26146;51.114;5.654;2023-05-18T21:07:47;13.50;;;4.90;;
40433;SDS011;26146;51.114;5.654;2023-05-18T21:11:49;11.83;;;4.80;;
40433;SDS011;26146;51.114;5.654;2023-05-18T21:15:50;12.27;;;4.83;;
40433;SDS011;26146;51.114;5.654;2023-05-18T21:19:51;14.23;;;5.23;;
40433;SDS011;26146;51.114;5.654;2023-05-18T21:23:52;11.47;;;4.60;;
40433;SDS011;26146;51.114;5.654;2023-05-18T21:27:54;12.97;;;5.33;;
40433;SDS011;26146;51.114;5.654;2023-05-18T21:31:55;12.97;;;5.13;;
40433;SDS011;26146;51.114;5.654;2023-05-18T21:35:56;12.67;;;4.73;;
40433;SDS011;26146;51.114;5.654;2023-05-18T21:39:58;13.03;;;5.00;;
40433;SDS011;26146;51.114;5.654;2023-05-18T21:43:59;11.40;;;5.23;;
40433;SDS011;26146;51.114;5.654;2023-05-18T21:48:00;11.87;;;5.03;;
40433;SDS011;26146;51.114;5.654;2023-05-18T21:52:01;14.70;;;5.50;;
40433;SDS011;26146;51.114;5.654;2023-05-18T21:56:02;14.90;;;5.43;;
40433;SDS011;26146;51.114;5.654;2023-05-18T22:00:03;16.03;;;5.33;;
40433;SDS011;26146;51.114;5.654;2023-05-18T22:04:05;13.80;;;5.40;;
40433;SDS011;26146;51.114;5.654;2023-05-18T22:08:06;12.37;;;5.17;;
40433;SDS011;26146;51.114;5.654;2023-05-18T22:12:07;13.43;;;5.10;;
40433;SDS011;26146;51.114;5.654;2023-05-18T22:16:08;14.03;;;5.20;;
40433;SDS011;26146;51.114;5.654;2023-05-18T22:20:09;13.50;;;5.23;;
40433;SDS011;26146;51.114;5.654;2023-05-18T22:24:10;15.43;;;5.20;;
40433;SDS011;26146;51.114;5.654;2023-05-18T22:28:12;13.67;;;5.40;;
40433;SDS011;26146;51.114;5.654;2023-05-18T22:32:13;13.57;;;5.77;;
40433;SDS011;26146;51.114;5.654;2023-05-18T22:36:16;14.97;;;6.30;;
40433;SDS011;26146;51.114;5.654;2023-05-18T22:40:19;14.63;;;6.47;;
40433;SDS011;26146;51.114;5.654;2023-05-18T22:44:20;16.37;;;6.97;;
40433;SDS011;26146;51.114;5.654;2023-05-18T22:48:21;14.17;;;6.70;;
40433;SDS011;26146;51.114;5.654;2023-05-18T22:52:24;16.83;;;6.87;;
40433;SDS011;26146;51.114;5.654;2023-05-18T22:56:25;16.67;;;6.67;;
40433;SDS011;26146;51.114;5.654;2023-05-18T23:00:27;11.73;;;6.10;;
40433;SDS011;26146;51.114;5.654;2023-05-18T23:04:28;14.30;;;6.83;;
40433;SDS011;26146;51.114;5.654;2023-05-18T23:08:29;14.70;;;6.43;;
40433;SDS011;26146;51.114;5.654;2023-05-18T23:12:30;17.10;;;6.33;;
40433;SDS011;26146;51.114;5.654;2023-05-18T23:16:32;15.10;;;6.67;;
40433;SDS011;26146;51.114;5.654;2023-05-18T23:20:33;16.27;;;6.87;;
40433;SDS011;26146;51.114;5.654;2023-05-18T23:24:34;12.97;;;7.00;;
40433;SDS011;26146;51.114;5.654;2023-05-18T23:29:43;17.70;;;7.00;;
40433;SDS011;26146;51.114;5.654;2023-05-18T23:33:45;13.27;;;6.53;;
40433;SDS011;26146;51.114;5.654;2023-05-18T23:37:47;14.63;;;6.97;;
40433;SDS011;26146;51.114;5.654;2023-05-18T23:41:50;16.40;;;7.30;;
40433;SDS011;26146;51.114;5.654;2023-05-18T23:45:53;17.23;;;7.27;;
40433;SDS011;26146;51.114;5.654;2023-05-18T23:49:56;16.17;;;7.43;;
40433;SDS011;26146;51.114;5.654;2023-05-18T23:53:57;14.10;;;6.97;;
40433;SDS011;26146;51.114;5.654;2023-05-18T23:57:58;16.83;;;7.30;;
